AirNav   Pilot Hours Calculator
 
 1368 users online  

F69 Air Park-Dallas Airport
Dallas, Texas, USA

GOING TO DALLAS?


FAA INFORMATION EFFECTIVE 25 FEBRUARY 2021

Location

FAA Identifier: F69
Lat/Long: 33-01-24.4370N 096-50-13.0060W
33-01.407283N 096-50.216767W
33.0234547,-96.8369461
(estimated)
Elevation: 695 ft. / 212 m (estimated)
Variation: 07E (1985)
From city: 16 miles NE of DALLAS, TX
Time zone: UTC -6 (UTC -5 during Daylight Saving Time)
Zip code: 75093

Airport Operations

Airport use: Open to the public
Control tower: no
ARTCC: FORT WORTH CENTER
FSS: FORT WORTH FLIGHT SERVICE STATION
NOTAMs facility: FTW (NOTAM-D service available)
Attendance: UNATNDD
Wind indicator: yes
Segmented circle: no

Airport Communications

CTAF: 122.9
WX AWOS-3 at ADS (3 nm S): PHONE 972-386-4855
WX ASOS at DAL (11 nm S): PHONE 214-353-1551
WX ASOS at DFW (13 nm SW): PHONE 972-615-2608
WX AWOS-3 at 49T (15 nm S): 135.425 (214-670-1243)
WX ASOS at TKI (16 nm NE): 119.925 (972-548-8525)
  • ARPT INSIDE ADDISON CLASS D AIRSPACE. CTC ADDISON TOWER 126.0 (0600-2200).

Nearby radio navigation aids

VOR radial/distance  VOR name  Freq  Var
CVEr017/8.7COWBOY VOR/DME116.2006E
TTTr042/13.8MAVERICK VOR/DME113.1006E
FUZr059/19.0RANGER VORTAC115.7006E

 
NDB name  Hdg/Dist  Freq  Var  ID
MESQUITE307/20.124803EPQF .--. --.- ..-.
TRAVIS292/33.626006EAVZ .- ...- --..

Airport Services

Parking: tiedowns
Airframe service: MAJOR
Powerplant service: MAJOR

Runway Information

Runway 16/34

Dimensions: 3080 x 30 ft. / 939 x 9 m
Surface: asphalt, in poor condition
POTHOLES, EXTENSIVE CRACKING, LOOSE STONES & AGGREGATE ON ALL PVMNT SFCS. VEGETATION GROWING THROUGH PVMNT.
Runway edge markings: NSTD CNTRLN MKG INCORRECT SIZE & SPACING. RY NRS 25 FT TALL. MKGS FADED. RY NUMBER 34 NOT LOCATED AT RY END. DSPLCD THLD ARROWS YELLOW.
RUNWAY 16  RUNWAY 34
Traffic pattern: leftright
Displaced threshold: 300 ft.no
Markings: NSTD, in poor conditionNSTD, in poor condition
Obstructions: 30 ft. tree, 343 ft. from runway, 4:1 slope to clear
ROAD AT 58 FT; +4 FT FENCE AT 20 FT FM THLD ON EXTDD CNTRLN; 19 FT SIGN AT 124 FT FM THLD 70 FT EAST OF EXTDD CNTRLN.
23 ft. tree, 334 ft. from runway, 48 ft. left of centerline, 5:1 slope to clear
4 FT FENCE 0 FT DSTC 100 FT RIGHT. +15 FT RD 110 FT R.

Airport Ownership and Management from official FAA records

Ownership: Privately-owned
Owner: CROW BILLINGSLEY AIRPARK LTD
1722 ROUTH ST STE 707
DALLAS , TX 75201
Phone (214) 693-0513
Manager: BECKY ROWLAND
1722 ROUTH ST STE 707
DALLAS, TX 75201
Phone (214) 693-0513

Airport Operational Statistics

Aircraft based on the field: 63
Single engine airplanes: 60
Multi engine airplanes: 1
Helicopters: 1
Ultralights: 1
    
Aircraft operations: avg 57/week *
50% transient general aviation
50% local general aviation
* for 12-month period ending 31 December 2018

Additional Remarks

FOR CD CTC REGIONAL APCH AT 972-615-2799.
RWY 34 APCH, OBSTN LIGHT ON BLDG IS LOWER THAN OBSTRUCTIONS CLOSER TO RWY END.

Instrument Procedures

There are no published instrument procedures at F69.

Some nearby airports with instrument procedures:

KADS - Addison Airport (3 nm S)
KDAL - Dallas Love Field Airport (11 nm S)
KDFW - Dallas-Fort Worth International Airport (13 nm SW)
KTKI - McKinney NTL Airport (16 nm NE)
KRBD - DallasExecutive Airport (21 nm S)
 
Loc | Ops | Rwys | IFR | FBO | Links
Com | Nav | Svcs | Stats | Notes

City of Fort Worth
 
Area around F69 (Air Park-Dallas Airport)
 
Road maps at: MapQuest Bing Google
 
Aerial photo
WARNING: Photo may not be current or correct
Aerial photo of F69 (Air Park-Dallas Airport)
Photo by K. Bruggers

Do you have a better or more recent aerial photo of Air Park-Dallas Airport that you would like to share? If so, please send us your photo.

 
Sectional chart

 
Airport distance calculator
Flying to Air Park-Dallas Airport? Find the distance to fly.

From to F69

Sunrise and sunset
Times for 26-Feb-2021
 Local
(UTC-6)
 Zulu
(UTC)
Morning civil twilight06:3512:35
Sunrise07:0013:00
Sunset18:2100:21
Evening civil twilight18:4600:46

Current date and time
Zulu (UTC)  26-Feb-2021 16:11:40
Local (UTC-6)  26-Feb-2021 10:11:40
 
METAR
KADS 
4nm S 
261547Z 00000KT 10SM OVC008 10/08 A3002
KDAL 
10nm S 
261553Z 00000KT 9SM OVC009 11/08 A3000 RMK AO2 SLP158 T01060078
KDFW 
12nm SW 
261553Z 02003KT 6SM BR OVC007 09/08 A3000 RMK AO2 SLP156 T00890078 $
KTKI 
16nm NE 
261553Z 00000KT 10SM OVC006 09/07 A3000 RMK AO2 SLP169 T00890067
TAF
KDAL 
10nm S 
261331Z 2614/2712 34005KT P6SM VCSH BKN006 TEMPO 2614/2616 -SHRA FM261900 25006KT P6SM BKN008 FM262100 25008KT P6SM BKN015 FM270300 18006KT P6SM SCT015 FM270900 15005KT 1SM BR OVC015
KDFW 
12nm SW 
261331Z 2614/2718 34005KT P6SM VCSH BKN006 TEMPO 2614/2616 -SHRA FM261900 25006KT P6SM BKN008 FM262100 25008KT P6SM BKN015 FM270300 18006KT P6SM SCT015 FM270900 15005KT 1SM BR OVC015 FM271500 12012KT 3SM BR OVC007
NOTAMs
Click for the latest NOTAMs
NOTAMs are issued by the DoD/FAA and will open in a separate window not controlled by AirNav.

 

 
 

FBO, Fuel Providers, and Aircraft Ground Support

  
 Business Name 
 
 Contact 
 
 Services / Description 
 
Fuel Prices
 
Comments
  
 Sprynx Aviation
214-909-5999
[web site]
[email]
Aviation fuel, Aircraft parking (ramp or tiedown), Flight training, Aircraft rental, Aerial tours / aerial sightseeing, Aerial photography, Pilot supplies, ...

More info about Sprynx Aviation
100LL
AS $4.12 
 Updated 10-Feb-2021
 
   1 read write
AS=Assisted/Self Service
Update Fuel Prices
 

Would you like to see your business listed on this page?

 If your business provides an interesting product or service to pilots, flight crews, aircraft, or users of the Air Park-Dallas Airport, you should consider listing it here.  To start the listing process, click on the button below
 
Add a business
 

Other Pages about Air Park-Dallas Airport

Update a link
 
Copyright © AirNav, LLC. All rights reserved. Privacy Policy  Contact